createdAt,value
2017-03-12T00:00:18.392Z,0
2017-03-12T00:00:59.276Z,0
2017-03-12T00:01:40.162Z,0
2017-03-12T00:02:21.055Z,0
2017-03-12T00:03:01.934Z,0
2017-03-12T00:03:42.818Z,0
2017-03-12T00:04:23.701Z,0
2017-03-12T00:05:04.584Z,0
2017-03-12T00:05:45.468Z,0
2017-03-12T00:06:26.349Z,0
2017-03-12T00:07:07.231Z,0
2017-03-12T00:07:48.112Z,0
2017-03-12T00:08:28.999Z,0
2017-03-12T00:09:09.873Z,0
2017-03-12T00:09:50.781Z,0
2017-03-12T00:10:31.667Z,0
2017-03-12T00:11:12.554Z,0
2017-03-12T00:11:53.426Z,0
2017-03-12T00:12:34.312Z,0
2017-03-12T00:13:15.194Z,0
2017-03-12T00:13:56.076Z,0
2017-03-12T00:14:36.965Z,0
2017-03-12T00:15:17.852Z,0
2017-03-12T00:15:58.725Z,0
2017-03-12T00:16:39.609Z,0
2017-03-12T00:17:20.499Z,0
2017-03-12T00:18:01.384Z,0
2017-03-12T00:18:42.265Z,0
2017-03-12T00:19:23.142Z,0
2017-03-12T00:20:04.028Z,0
2017-03-12T00:20:44.916Z,0
2017-03-12T00:21:25.797Z,0
2017-03-12T00:22:06.676Z,0
2017-03-12T00:22:47.555Z,0
2017-03-12T00:23:28.441Z,0
2017-03-12T00:24:09.330Z,0
2017-03-12T00:24:50.204Z,0
2017-03-12T00:25:31.086Z,0
2017-03-12T00:26:11.970Z,0
2017-03-12T00:26:52.854Z,0
2017-03-12T00:27:33.739Z,0
2017-03-12T00:28:14.620Z,0
2017-03-12T00:28:55.506Z,0
2017-03-12T00:29:36.385Z,0
2017-03-12T00:30:17.263Z,0
2017-03-12T00:30:58.146Z,0
2017-03-12T00:31:39.036Z,0
2017-03-12T00:32:19.903Z,0
2017-03-12T00:33:00.777Z,0
2017-03-12T00:33:41.659Z,0
2017-03-12T00:34:22.542Z,0
2017-03-12T00:35:03.424Z,0
2017-03-12T00:35:44.307Z,0
2017-03-12T00:36:25.174Z,0
2017-03-12T00:37:06.056Z,0
2017-03-12T00:37:46.938Z,0
2017-03-12T00:38:27.835Z,0
2017-03-12T00:39:08.716Z,0
2017-03-12T00:39:49.599Z,0
2017-03-12T00:40:30.483Z,0
2017-03-12T00:41:11.369Z,0
2017-03-12T00:41:52.249Z,0
2017-03-12T00:42:33.129Z,0
2017-03-12T00:43:14.020Z,0
2017-03-12T00:43:54.906Z,0
2017-03-12T00:44:35.791Z,0
2017-03-12T00:45:16.675Z,0
2017-03-12T00:45:57.559Z,0
2017-03-12T00:46:38.443Z,0
2017-03-12T00:47:19.325Z,0
2017-03-12T00:48:00.206Z,0
2017-03-12T00:48:41.094Z,0
2017-03-12T00:49:21.976Z,0
2017-03-12T00:50:02.874Z,0
2017-03-12T00:50:43.758Z,0
2017-03-12T00:51:24.639Z,0
2017-03-12T00:52:05.516Z,0
2017-03-12T00:52:46.402Z,0
2017-03-12T00:53:27.276Z,0
2017-03-12T00:54:08.162Z,0
2017-03-12T00:54:49.047Z,0
2017-03-12T00:55:29.928Z,0
2017-03-12T00:56:10.810Z,0
2017-03-12T00:56:51.693Z,0
2017-03-12T00:57:32.574Z,0
2017-03-12T00:58:13.447Z,0
2017-03-12T00:58:54.323Z,0
2017-03-12T00:59:35.214Z,0
2017-03-12T01:00:16.100Z,0
2017-03-12T01:00:56.982Z,0
2017-03-12T01:01:37.864Z,0
2017-03-12T01:02:18.751Z,0
2017-03-12T01:02:59.637Z,0
2017-03-12T01:03:40.521Z,0
2017-03-12T01:04:21.422Z,0
2017-03-12T01:05:02.303Z,0
2017-03-12T01:05:43.180Z,0
2017-03-12T01:06:24.062Z,0
2017-03-12T01:07:04.941Z,0
2017-03-12T01:07:45.825Z,0
2017-03-12T01:08:26.712Z,0
2017-03-12T01:09:07.593Z,0
2017-03-12T01:09:48.474Z,0
2017-03-12T01:10:29.353Z,0
2017-03-12T01:11:10.236Z,0
2017-03-12T01:11:51.122Z,0
2017-03-12T01:12:32.006Z,0
2017-03-12T01:13:12.902Z,0
2017-03-12T01:13:53.779Z,0
2017-03-12T01:14:34.665Z,0
2017-03-12T01:15:15.560Z,0
2017-03-12T01:15:56.429Z,0
2017-03-12T01:16:37.310Z,0
2017-03-12T01:17:18.189Z,0
2017-03-12T01:17:59.080Z,0
2017-03-12T01:18:39.962Z,0
2017-03-12T01:19:20.855Z,0
2017-03-12T01:20:01.731Z,0
2017-03-12T01:20:42.612Z,0
2017-03-12T01:21:23.496Z,0
2017-03-12T01:22:04.386Z,0
2017-03-12T01:22:45.305Z,0
2017-03-12T01:23:26.161Z,0
2017-03-12T01:24:07.050Z,0
2017-03-12T01:24:47.938Z,0
2017-03-12T01:25:28.817Z,0
2017-03-12T01:26:09.702Z,0
2017-03-12T01:26:50.582Z,0
2017-03-12T01:27:31.466Z,0
2017-03-12T01:28:12.351Z,0
2017-03-12T01:28:53.252Z,0
2017-03-12T01:29:34.139Z,0
2017-03-12T01:30:15.022Z,0
2017-03-12T01:30:55.905Z,0
2017-03-12T01:31:36.787Z,0
2017-03-12T01:32:17.671Z,0
2017-03-12T01:32:58.564Z,0
2017-03-12T01:33:39.444Z,0
2017-03-12T01:34:20.328Z,0
2017-03-12T01:35:01.207Z,0
2017-03-12T01:35:42.090Z,0
2017-03-12T01:36:22.972Z,0
2017-03-12T01:37:03.855Z,0
2017-03-12T01:37:44.738Z,0
2017-03-12T01:38:25.624Z,0
2017-03-12T01:39:06.508Z,0
2017-03-12T01:39:47.390Z,0
2017-03-12T01:40:28.277Z,0
2017-03-12T01:41:09.160Z,0
2017-03-12T01:41:50.049Z,0
2017-03-12T01:42:30.929Z,0
2017-03-12T01:43:11.809Z,0
2017-03-12T01:43:52.687Z,0
2017-03-12T01:44:33.566Z,0
2017-03-12T01:45:14.449Z,0
2017-03-12T01:45:55.320Z,0
2017-03-12T01:46:36.195Z,0
2017-03-12T01:47:17.069Z,0
2017-03-12T01:47:57.957Z,0
2017-03-12T01:48:38.853Z,0
2017-03-12T01:49:19.734Z,0
2017-03-12T01:50:00.613Z,0
2017-03-12T01:50:41.500Z,0
2017-03-12T01:51:22.382Z,0
2017-03-12T01:52:03.264Z,0
2017-03-12T01:52:44.151Z,0
2017-03-12T01:53:25.037Z,0
2017-03-12T01:54:05.916Z,0
2017-03-12T01:54:46.797Z,0
2017-03-12T01:55:27.684Z,0
2017-03-12T01:56:08.559Z,0
2017-03-12T01:56:49.448Z,0
2017-03-12T01:57:30.330Z,0
2017-03-12T01:58:11.207Z,0
2017-03-12T01:58:52.082Z,0
2017-03-12T01:59:32.963Z,0
2017-03-12T02:00:13.844Z,0
2017-03-12T02:00:54.724Z,0
2017-03-12T02:01:35.608Z,0
2017-03-12T02:02:16.493Z,0
2017-03-12T02:02:57.377Z,0
2017-03-12T02:03:38.252Z,0
2017-03-12T02:04:19.138Z,0
2017-03-12T02:05:00.024Z,0
2017-03-12T02:05:40.903Z,0
2017-03-12T02:06:21.789Z,0
2017-03-12T02:07:02.671Z,0
2017-03-12T02:07:43.556Z,0
2017-03-12T02:08:24.437Z,0
2017-03-12T02:09:05.320Z,0
2017-03-12T02:09:46.208Z,0
2017-03-12T02:12:05.090Z,0
2017-03-12T02:12:45.974Z,0
2017-03-12T02:13:26.853Z,0
2017-03-12T02:14:07.732Z,0
2017-03-12T02:14:48.619Z,0
2017-03-12T02:15:29.499Z,0
2017-03-12T02:16:10.378Z,0
2017-03-12T02:16:51.255Z,0
2017-03-12T02:17:32.138Z,0
2017-03-12T02:18:13.015Z,0
2017-03-12T02:18:53.897Z,0
2017-03-12T02:19:34.777Z,0
2017-03-12T02:20:15.662Z,0
2017-03-12T02:20:56.539Z,0
2017-03-12T02:21:37.420Z,0
2017-03-12T02:22:18.294Z,0
2017-03-12T02:22:59.176Z,0
2017-03-12T02:23:40.055Z,0
2017-03-12T02:24:20.937Z,0
2017-03-12T02:25:01.820Z,0
2017-03-12T02:25:42.701Z,0
2017-03-12T02:26:23.582Z,0
2017-03-12T02:27:04.462Z,0
2017-03-12T02:27:45.351Z,0
2017-03-12T02:28:26.233Z,0
2017-03-12T02:29:07.116Z,0
2017-03-12T02:29:47.999Z,0
2017-03-12T02:30:28.879Z,0
2017-03-12T02:31:09.760Z,0
2017-03-12T02:31:50.630Z,0
2017-03-12T02:32:31.510Z,0
2017-03-12T02:33:12.394Z,0
2017-03-12T02:33:53.277Z,0
2017-03-12T02:34:34.158Z,0
2017-03-12T02:35:15.041Z,0
2017-03-12T02:35:55.931Z,0
2017-03-12T02:36:36.812Z,0
2017-03-12T02:37:17.692Z,0
2017-03-12T02:37:58.577Z,0
2017-03-12T02:38:39.459Z,0
2017-03-12T02:39:20.345Z,0
2017-03-12T02:40:01.244Z,0
2017-03-12T02:40:42.109Z,0
2017-03-12T02:41:22.995Z,0
2017-03-12T02:42:03.877Z,0
2017-03-12T02:42:44.762Z,0
2017-03-12T02:43:25.643Z,0
2017-03-12T02:44:06.524Z,0
2017-03-12T02:44:47.411Z,0
2017-03-12T02:45:28.291Z,0
2017-03-12T02:46:09.178Z,0
2017-03-12T02:46:50.061Z,0
2017-03-12T02:47:30.941Z,0
2017-03-12T02:48:11.817Z,0
2017-03-12T02:48:52.696Z,0
2017-03-12T02:49:33.595Z,0
2017-03-12T02:50:14.472Z,0
2017-03-12T02:50:55.349Z,0
2017-03-12T02:51:36.226Z,0
2017-03-12T02:52:17.100Z,0
2017-03-12T02:52:57.979Z,0
2017-03-12T02:53:38.866Z,0
2017-03-12T02:54:19.746Z,0
2017-03-12T02:55:00.631Z,0
2017-03-12T02:55:41.518Z,0
2017-03-12T02:56:22.403Z,0
2017-03-12T02:57:03.283Z,0
2017-03-12T02:57:44.163Z,0
2017-03-12T02:58:25.045Z,0
2017-03-12T02:59:05.926Z,0
2017-03-12T02:59:46.812Z,0
2017-03-12T03:00:27.689Z,0
2017-03-12T03:01:08.573Z,0
2017-03-12T03:01:49.448Z,0
2017-03-12T03:02:30.329Z,0
2017-03-12T03:03:11.207Z,0
2017-03-12T03:03:52.093Z,0
2017-03-12T03:04:32.985Z,0
2017-03-12T03:05:13.863Z,0
2017-03-12T03:05:54.742Z,0
2017-03-12T03:06:35.625Z,0
2017-03-12T03:07:16.510Z,0
2017-03-12T03:07:57.391Z,0
2017-03-12T03:08:38.273Z,0
2017-03-12T03:09:19.159Z,0
2017-03-12T03:10:00.040Z,0
2017-03-12T03:10:40.918Z,0
2017-03-12T03:11:21.794Z,0
2017-03-12T03:12:02.678Z,0
2017-03-12T03:12:43.563Z,0
2017-03-12T03:13:24.439Z,0
2017-03-12T03:14:05.318Z,0
2017-03-12T03:14:46.198Z,0
2017-03-12T03:15:27.083Z,0
2017-03-12T03:16:07.962Z,0
2017-03-12T03:16:48.844Z,0
2017-03-12T03:17:29.723Z,0
2017-03-12T03:18:10.598Z,0
2017-03-12T03:18:51.479Z,0
2017-03-12T03:19:32.358Z,0
2017-03-12T03:20:13.253Z,0
2017-03-12T03:20:54.136Z,0
2017-03-12T03:21:35.014Z,0
2017-03-12T03:22:15.893Z,0
2017-03-12T03:22:56.780Z,0
2017-03-12T03:23:37.653Z,0
2017-03-12T03:24:18.540Z,0
2017-03-12T03:24:59.426Z,0
2017-03-12T03:25:40.296Z,0
2017-03-12T03:26:21.172Z,0
2017-03-12T03:27:02.060Z,0
2017-03-12T03:27:42.945Z,0
2017-03-12T03:28:23.830Z,0
2017-03-12T03:29:04.710Z,0
2017-03-12T03:29:45.590Z,0
2017-03-12T03:30:26.464Z,0
2017-03-12T03:31:07.341Z,0
2017-03-12T03:31:48.226Z,0
2017-03-12T03:32:29.124Z,0
2017-03-12T03:33:10.003Z,0
2017-03-12T03:33:50.885Z,0
2017-03-12T03:34:31.764Z,0
2017-03-12T03:35:12.650Z,0
2017-03-12T03:35:53.554Z,0
2017-03-12T03:36:34.430Z,0
2017-03-12T03:37:15.312Z,0
2017-03-12T03:37:56.184Z,0
2017-03-12T03:38:37.062Z,0
2017-03-12T03:39:17.938Z,0
2017-03-12T03:39:58.822Z,0
2017-03-12T03:40:39.701Z,0
2017-03-12T03:41:20.582Z,0
2017-03-12T03:42:01.462Z,0
2017-03-12T03:42:42.370Z,0
2017-03-12T03:43:23.222Z,0
2017-03-12T03:44:04.102Z,0
2017-03-12T03:44:44.978Z,0
2017-03-12T03:45:25.865Z,0
2017-03-12T03:46:06.743Z,0
2017-03-12T03:46:47.620Z,0
2017-03-12T03:47:28.504Z,0
2017-03-12T03:48:09.382Z,0
2017-03-12T03:48:50.264Z,0
2017-03-12T03:49:31.151Z,0
2017-03-12T03:50:12.036Z,0
2017-03-12T03:50:52.918Z,0
2017-03-12T03:51:33.798Z,0
2017-03-12T03:52:14.675Z,0
2017-03-12T03:52:55.557Z,0
2017-03-12T03:53:36.443Z,0
2017-03-12T03:54:17.331Z,0
2017-03-12T03:54:58.211Z,0
2017-03-12T03:55:39.093Z,0
2017-03-12T03:56:19.974Z,0
2017-03-12T03:57:00.860Z,0
2017-03-12T03:57:41.738Z,0
2017-03-12T03:58:22.616Z,0
2017-03-12T03:59:03.494Z,0
2017-03-12T03:59:44.376Z,0
2017-03-12T04:00:25.267Z,0
2017-03-12T04:01:06.142Z,0
2017-03-12T04:01:47.025Z,0
2017-03-12T04:02:27.908Z,0
2017-03-12T04:03:08.792Z,0
2017-03-12T04:03:49.672Z,0
2017-03-12T04:04:30.554Z,0
2017-03-12T04:05:11.433Z,0
2017-03-12T04:05:52.310Z,0
2017-03-12T04:06:33.193Z,0
2017-03-12T04:07:14.068Z,0
2017-03-12T04:07:54.968Z,0
2017-03-12T04:08:35.870Z,0
2017-03-12T04:09:16.747Z,0
2017-03-12T04:09:57.626Z,0
2017-03-12T04:10:38.503Z,0
2017-03-12T04:11:19.383Z,0
2017-03-12T04:12:00.263Z,0
2017-03-12T04:12:41.149Z,0
2017-03-12T04:13:22.036Z,0
2017-03-12T04:14:02.918Z,0
2017-03-12T04:14:43.806Z,0
2017-03-12T04:15:24.685Z,0
2017-03-12T04:16:05.570Z,0
2017-03-12T04:16:46.456Z,0
2017-03-12T04:17:27.337Z,0
2017-03-12T04:18:08.217Z,0
2017-03-12T04:18:49.095Z,0
2017-03-12T04:19:29.970Z,0
2017-03-12T04:20:10.847Z,0
2017-03-12T04:20:51.731Z,0
2017-03-12T04:21:32.608Z,0
2017-03-12T04:22:13.491Z,0
2017-03-12T04:22:54.372Z,0
2017-03-12T04:23:35.255Z,0
2017-03-12T04:24:16.145Z,0
2017-03-12T04:24:57.025Z,0
2017-03-12T04:25:37.907Z,0
2017-03-12T04:26:18.786Z,0
2017-03-12T04:26:59.666Z,0
2017-03-12T04:27:40.551Z,0
2017-03-12T04:28:21.432Z,0
2017-03-12T04:29:02.308Z,0
2017-03-12T04:29:43.189Z,0
2017-03-12T04:30:24.071Z,0
2017-03-12T04:31:04.954Z,0
2017-03-12T04:31:45.828Z,0
2017-03-12T04:32:26.711Z,0
2017-03-12T04:33:07.594Z,0
2017-03-12T04:33:48.473Z,0
2017-03-12T04:34:29.358Z,0
2017-03-12T04:35:10.233Z,0
2017-03-12T04:35:51.112Z,0
2017-03-12T04:36:31.988Z,0
2017-03-12T04:37:12.866Z,0
2017-03-12T04:37:53.736Z,0
2017-03-12T04:38:34.613Z,0
2017-03-12T04:39:15.493Z,0
2017-03-12T04:39:56.373Z,0
2017-03-12T04:40:37.244Z,0
2017-03-12T04:41:18.119Z,0
2017-03-12T04:41:58.997Z,0
2017-03-12T04:42:39.868Z,0
2017-03-12T04:43:20.742Z,0
2017-03-12T04:44:01.615Z,0
2017-03-12T04:44:42.494Z,0
2017-03-12T04:45:23.393Z,0
2017-03-12T04:46:04.273Z,0
2017-03-12T04:46:45.143Z,0
2017-03-12T04:47:26.022Z,0
2017-03-12T04:48:06.903Z,0
2017-03-12T04:48:47.778Z,0
2017-03-12T04:49:28.652Z,0
2017-03-12T04:50:09.528Z,0
2017-03-12T04:50:50.408Z,0
2017-03-12T04:51:31.280Z,0
2017-03-12T04:52:12.151Z,0
2017-03-12T04:52:53.030Z,0
2017-03-12T04:53:33.907Z,0
2017-03-12T04:54:14.779Z,0
2017-03-12T04:54:55.649Z,0
2017-03-12T04:55:36.524Z,0
2017-03-12T04:56:17.397Z,0
2017-03-12T04:56:58.283Z,0
2017-03-12T04:57:39.159Z,0
2017-03-12T04:58:20.031Z,0
2017-03-12T04:59:00.908Z,0
2017-03-12T04:59:41.778Z,0
2017-03-12T05:00:22.654Z,0
2017-03-12T05:01:03.534Z,0
2017-03-12T05:01:44.406Z,0
2017-03-12T05:02:25.281Z,0
2017-03-12T05:03:06.156Z,0
2017-03-12T05:03:47.040Z,0
2017-03-12T05:04:27.918Z,0
2017-03-12T05:05:08.798Z,0
2017-03-12T05:05:49.679Z,0
2017-03-12T05:06:30.556Z,0
2017-03-12T05:07:11.435Z,0
2017-03-12T05:07:52.315Z,0
2017-03-12T05:08:33.197Z,0
2017-03-12T05:09:14.073Z,0
2017-03-12T05:09:54.949Z,0
2017-03-12T05:10:35.821Z,0
2017-03-12T05:11:16.698Z,0
2017-03-12T05:11:57.570Z,0
2017-03-12T05:12:38.449Z,0
2017-03-12T05:13:19.328Z,0
2017-03-12T05:14:00.200Z,0
2017-03-12T05:14:41.094Z,0
2017-03-12T05:15:21.975Z,0
2017-03-12T05:16:02.853Z,0
2017-03-12T05:16:43.729Z,0
2017-03-12T05:17:24.604Z,0
2017-03-12T05:18:05.478Z,0
2017-03-12T05:18:46.350Z,0
2017-03-12T05:19:27.228Z,0
2017-03-12T05:20:08.104Z,0
2017-03-12T05:20:48.978Z,0
2017-03-12T05:21:29.854Z,5
2017-03-12T05:22:10.735Z,5
2017-03-12T05:22:51.609Z,5
2017-03-12T05:23:32.482Z,5
2017-03-12T05:24:13.358Z,5
2017-03-12T05:24:54.231Z,5
2017-03-12T05:25:35.108Z,5
2017-03-12T05:26:15.981Z,5
2017-03-12T05:26:56.861Z,5
2017-03-12T05:27:37.735Z,5
2017-03-12T05:28:18.614Z,10
2017-03-12T05:28:59.488Z,10
2017-03-12T05:29:40.379Z,10
2017-03-12T05:30:21.231Z,10
2017-03-12T05:31:02.122Z,10
2017-03-12T05:31:42.985Z,10
2017-03-12T05:32:23.855Z,10
2017-03-12T05:33:04.729Z,10
2017-03-12T05:33:45.601Z,15
2017-03-12T05:34:26.477Z,15
2017-03-12T05:35:07.358Z,15
2017-03-12T05:35:48.257Z,15
2017-03-12T05:36:29.132Z,15
2017-03-12T05:37:10.010Z,15
2017-03-12T05:37:50.922Z,15
2017-03-12T05:38:31.765Z,20
2017-03-12T05:39:12.643Z,20
2017-03-12T05:39:53.524Z,20
2017-03-12T05:40:34.399Z,20
2017-03-12T05:41:15.271Z,20
2017-03-12T05:41:56.148Z,20
2017-03-12T05:42:37.028Z,25
2017-03-12T05:43:17.911Z,25
2017-03-12T05:43:58.789Z,25
2017-03-12T05:44:39.658Z,25
2017-03-12T05:45:20.534Z,25
2017-03-12T05:46:01.410Z,30
2017-03-12T05:46:42.282Z,30
2017-03-12T05:47:23.160Z,30
2017-03-12T05:48:04.036Z,30
2017-03-12T05:48:44.910Z,30
2017-03-12T05:49:25.784Z,35
2017-03-12T05:50:06.661Z,35
2017-03-12T05:50:47.533Z,35
2017-03-12T05:51:28.432Z,35
2017-03-12T05:52:09.291Z,35
2017-03-12T05:52:50.171Z,40
2017-03-12T05:53:31.043Z,40
2017-03-12T05:54:11.916Z,40
2017-03-12T05:54:52.788Z,40
2017-03-12T05:55:33.667Z,40
2017-03-12T05:56:14.544Z,45
2017-03-12T05:56:55.421Z,45
2017-03-12T05:57:36.304Z,45
2017-03-12T05:58:17.170Z,45
2017-03-12T05:58:58.046Z,45
2017-03-12T05:59:38.950Z,50
2017-03-12T06:00:19.790Z,50
2017-03-12T06:01:00.663Z,50
2017-03-12T06:01:41.536Z,50
2017-03-12T06:02:22.413Z,50
2017-03-12T06:03:03.285Z,55
2017-03-12T06:03:44.158Z,55
2017-03-12T06:04:25.038Z,55
2017-03-12T06:05:05.913Z,55
2017-03-12T06:05:46.787Z,60
2017-03-12T06:06:27.659Z,60
2017-03-12T06:07:08.532Z,60
2017-03-12T06:07:49.404Z,60
2017-03-12T06:08:30.280Z,60
2017-03-12T06:09:11.149Z,65
2017-03-12T06:09:52.025Z,65
2017-03-12T06:10:32.901Z,65
2017-03-12T06:11:13.777Z,65
2017-03-12T06:11:54.649Z,70
2017-03-12T06:12:35.533Z,70
2017-03-12T06:13:16.401Z,70
2017-03-12T06:13:57.278Z,70
2017-03-12T06:14:38.158Z,70
2017-03-12T06:15:19.025Z,75
2017-03-12T06:15:59.901Z,75
2017-03-12T06:16:40.782Z,75
2017-03-12T06:17:21.644Z,75
2017-03-12T06:18:02.541Z,80
2017-03-12T06:18:43.389Z,80
2017-03-12T06:19:24.266Z,80
2017-03-12T06:20:05.141Z,80
2017-03-12T06:20:46.026Z,80
2017-03-12T06:21:26.900Z,85
2017-03-12T06:22:07.780Z,85
2017-03-12T06:22:48.658Z,85
2017-03-12T06:23:29.554Z,85
2017-03-12T06:24:10.434Z,85
2017-03-12T06:24:51.314Z,90
2017-03-12T06:25:32.186Z,90
2017-03-12T06:26:13.062Z,90
2017-03-12T06:26:53.937Z,90
2017-03-12T06:27:34.814Z,95
2017-03-12T06:28:15.691Z,95
2017-03-12T06:28:56.565Z,95
2017-03-12T06:29:37.446Z,95
2017-03-12T06:30:18.322Z,95
2017-03-12T06:30:59.196Z,95
2017-03-12T06:31:40.074Z,100
2017-03-12T06:32:20.947Z,100
2017-03-12T06:33:01.818Z,100
2017-03-12T06:33:42.690Z,100
2017-03-12T06:34:23.570Z,105
2017-03-12T06:35:04.448Z,105
2017-03-12T06:35:45.319Z,105
2017-03-12T06:36:26.190Z,105
2017-03-12T06:37:07.062Z,105
2017-03-12T06:37:47.937Z,110
2017-03-12T06:38:28.821Z,110
2017-03-12T06:39:09.700Z,110
2017-03-12T06:39:50.578Z,110
2017-03-12T06:40:31.453Z,115
2017-03-12T06:41:12.330Z,115
2017-03-12T06:41:53.214Z,115
2017-03-12T06:42:34.090Z,115
2017-03-12T06:43:14.966Z,120
2017-03-12T06:43:55.842Z,120
2017-03-12T06:44:36.719Z,120
2017-03-12T06:45:17.600Z,120
2017-03-12T06:45:58.478Z,125
2017-03-12T06:46:39.355Z,125
2017-03-12T06:47:20.230Z,125
2017-03-12T06:48:01.110Z,125
2017-03-12T06:48:41.982Z,130
2017-03-12T06:49:22.857Z,130
2017-03-12T06:50:03.736Z,130
2017-03-12T06:50:44.609Z,130
2017-03-12T06:51:25.482Z,135
2017-03-12T06:52:06.359Z,135
2017-03-12T06:52:47.230Z,140
2017-03-12T06:53:28.106Z,135
2017-03-12T06:54:08.983Z,140
2017-03-12T06:54:49.859Z,140
2017-03-12T06:55:30.733Z,140
2017-03-12T06:56:11.606Z,140
2017-03-12T06:56:52.478Z,145
2017-03-12T06:57:33.351Z,145
2017-03-12T06:58:14.231Z,145
2017-03-12T06:58:55.103Z,145
2017-03-12T06:59:35.981Z,150
2017-03-12T07:00:16.858Z,150
2017-03-12T07:00:57.731Z,155
2017-03-12T07:01:38.603Z,155
2017-03-12T07:02:19.481Z,155
2017-03-12T07:03:00.356Z,155
2017-03-12T07:03:41.228Z,160
2017-03-12T07:04:22.114Z,165
2017-03-12T07:05:02.965Z,165
2017-03-12T07:05:43.842Z,170
2017-03-12T07:06:24.714Z,170
2017-03-12T07:07:05.616Z,175
2017-03-12T07:07:46.468Z,180
2017-03-12T07:08:27.343Z,175
2017-03-12T07:09:08.220Z,180
2017-03-12T07:09:49.089Z,220
2017-03-12T07:10:29.963Z,210
2017-03-12T07:11:10.846Z,210
2017-03-12T07:11:51.725Z,195
2017-03-12T07:12:32.602Z,210
2017-03-12T07:13:13.473Z,195
2017-03-12T07:13:54.351Z,240
2017-03-12T07:14:35.226Z,255
2017-03-12T07:15:16.109Z,240
2017-03-12T07:15:56.987Z,230
2017-03-12T07:16:37.861Z,270
2017-03-12T07:17:18.740Z,230
2017-03-12T07:17:59.619Z,235
2017-03-12T07:18:40.501Z,230
2017-03-12T07:19:21.374Z,260
2017-03-12T07:20:02.248Z,305
2017-03-12T07:20:43.128Z,255
2017-03-12T07:21:24.007Z,220
2017-03-12T07:22:04.886Z,255
2017-03-12T07:22:45.753Z,235
2017-03-12T07:23:26.633Z,270
2017-03-12T07:24:07.505Z,220
2017-03-12T07:24:48.382Z,220
2017-03-12T07:25:29.264Z,255
2017-03-12T07:26:10.144Z,240
2017-03-12T07:26:51.015Z,225
2017-03-12T07:27:31.895Z,190
2017-03-12T07:28:12.788Z,270
2017-03-12T07:28:53.664Z,225
2017-03-12T07:29:34.544Z,210
2017-03-12T07:30:15.417Z,180
2017-03-12T07:30:56.310Z,220
2017-03-12T07:31:37.191Z,225
2017-03-12T07:32:18.072Z,175
2017-03-12T07:32:58.949Z,210
2017-03-12T07:33:39.837Z,235
2017-03-12T07:34:20.718Z,185
2017-03-12T07:35:01.595Z,170
2017-03-12T07:35:42.464Z,195
2017-03-12T07:36:23.342Z,210
2017-03-12T07:37:04.212Z,160
2017-03-12T07:37:45.086Z,170
2017-03-12T07:38:25.968Z,180
2017-03-12T07:39:06.844Z,180
2017-03-12T07:39:47.709Z,200
2017-03-12T07:40:28.614Z,170
2017-03-12T07:41:09.491Z,165
2017-03-12T07:41:50.372Z,190
2017-03-12T07:42:31.246Z,180
2017-03-12T07:43:12.122Z,165
2017-03-12T07:43:53.001Z,170
2017-03-12T07:44:33.882Z,195
2017-03-12T07:45:14.763Z,145
2017-03-12T07:45:55.635Z,145
2017-03-12T07:46:36.512Z,180
2017-03-12T07:47:17.399Z,205
2017-03-12T07:47:58.282Z,200
2017-03-12T07:48:39.165Z,215
2017-03-12T07:49:20.051Z,205
2017-03-12T07:50:00.931Z,205
2017-03-12T07:50:41.807Z,200
2017-03-12T07:51:22.678Z,230
2017-03-12T07:52:03.553Z,220
2017-03-12T07:52:44.430Z,205
2017-03-12T07:53:25.303Z,240
2017-03-12T07:54:06.180Z,235
2017-03-12T07:54:47.056Z,195
2017-03-12T07:55:27.928Z,185
2017-03-12T07:56:08.798Z,180
2017-03-12T07:56:49.669Z,185
2017-03-12T07:57:30.545Z,185
2017-03-12T07:58:11.427Z,195
2017-03-12T07:58:52.303Z,195
2017-03-12T07:59:33.177Z,195
2017-03-12T08:00:14.062Z,195
2017-03-12T08:00:54.940Z,190
2017-03-12T08:01:35.818Z,180
2017-03-12T08:02:16.704Z,185
2017-03-12T08:02:57.580Z,175
2017-03-12T08:03:38.458Z,170
2017-03-12T08:04:19.333Z,190
2017-03-12T08:05:00.209Z,220
2017-03-12T08:05:41.119Z,215
2017-03-12T08:06:21.965Z,190
2017-03-12T08:07:02.840Z,185
2017-03-12T08:07:43.719Z,190
2017-03-12T08:08:24.588Z,205
2017-03-12T08:09:05.461Z,235
2017-03-12T08:09:46.333Z,245
2017-03-12T08:10:27.208Z,220
2017-03-12T08:11:08.085Z,200
2017-03-12T08:11:48.967Z,215
2017-03-12T08:12:29.840Z,185
2017-03-12T08:13:10.718Z,180
2017-03-12T08:13:51.598Z,205
2017-03-12T08:16:31.992Z,255
2017-03-12T08:17:12.866Z,235
2017-03-12T08:17:53.737Z,195
2017-03-12T08:18:34.618Z,215
2017-03-12T08:19:15.488Z,220
2017-03-12T08:19:56.353Z,215
2017-03-12T08:20:37.225Z,260
2017-03-12T08:21:18.101Z,295
2017-03-12T08:21:58.979Z,280
2017-03-12T08:22:39.850Z,275
2017-03-12T08:23:20.716Z,280
2017-03-12T08:24:01.611Z,270
2017-03-12T08:24:42.464Z,240
2017-03-12T08:25:23.328Z,245
2017-03-12T08:26:04.201Z,260
2017-03-12T08:26:45.138Z,265
2017-03-12T08:27:26.010Z,275
2017-03-12T08:28:06.882Z,280
2017-03-12T08:28:47.766Z,290
2017-03-12T08:29:28.642Z,255
2017-03-12T08:30:09.517Z,240
2017-03-12T08:30:50.393Z,270
2017-03-12T08:31:31.282Z,305
2017-03-12T08:32:12.155Z,355
2017-03-12T08:32:53.026Z,355
2017-03-12T08:33:33.900Z,325
2017-03-12T08:34:14.772Z,285
2017-03-12T08:34:55.642Z,260
2017-03-12T08:35:36.520Z,260
2017-03-12T08:36:17.387Z,275
2017-03-12T08:36:58.263Z,275
2017-03-12T08:37:39.136Z,250
2017-03-12T08:38:20.021Z,250
2017-03-12T08:39:00.893Z,235
2017-03-12T08:39:41.769Z,235
2017-03-12T08:40:22.646Z,215
2017-03-12T08:41:03.545Z,190
2017-03-12T08:41:44.395Z,195
2017-03-12T08:42:25.261Z,195
2017-03-12T08:43:06.136Z,220
2017-03-12T08:43:47.001Z,245
2017-03-12T08:44:27.866Z,270
2017-03-12T08:45:08.747Z,270
2017-03-12T08:45:49.627Z,270
2017-03-12T08:46:30.506Z,270
2017-03-12T08:47:11.383Z,285
2017-03-12T08:47:52.251Z,285
2017-03-12T08:48:33.126Z,305
2017-03-12T08:49:13.999Z,275
2017-03-12T08:49:54.877Z,255
2017-03-12T08:50:35.753Z,270
2017-03-12T08:51:16.627Z,275
2017-03-12T08:51:57.496Z,280
2017-03-12T08:52:38.368Z,280
2017-03-12T08:53:19.238Z,290
2017-03-12T08:54:00.121Z,290
2017-03-12T08:54:41.002Z,280
2017-03-12T08:55:21.884Z,280
2017-03-12T08:56:02.751Z,290
2017-03-12T08:56:43.630Z,300
2017-03-12T08:57:24.511Z,345
2017-03-12T08:58:05.386Z,385
2017-03-12T08:58:46.259Z,425
2017-03-12T08:59:27.129Z,440
2017-03-12T09:00:08.005Z,525
2017-03-12T09:00:48.869Z,485
2017-03-12T09:01:29.755Z,420
2017-03-12T09:02:10.624Z,390
2017-03-12T09:02:51.498Z,360
2017-03-12T09:03:32.372Z,330
2017-03-12T09:04:13.247Z,320
2017-03-12T09:04:54.129Z,330
2017-03-12T09:05:35.000Z,360
2017-03-12T09:06:15.870Z,410
2017-03-12T09:06:56.749Z,425
2017-03-12T09:07:37.628Z,345
2017-03-12T09:08:18.524Z,260
2017-03-12T09:08:59.402Z,255
2017-03-12T09:09:40.292Z,300
2017-03-12T09:10:21.170Z,365
2017-03-12T09:11:02.059Z,365
2017-03-12T09:11:42.940Z,390
2017-03-12T09:12:23.824Z,440
2017-03-12T09:13:04.697Z,385
2017-03-12T09:13:45.574Z,360
2017-03-12T09:14:26.453Z,440
2017-03-12T09:15:07.351Z,495
2017-03-12T09:15:48.227Z,395
2017-03-12T09:16:29.098Z,360
2017-03-12T09:17:09.977Z,385
2017-03-12T09:17:50.854Z,430
2017-03-12T09:18:31.735Z,440
2017-03-12T09:19:12.614Z,425
2017-03-12T09:19:53.519Z,370
2017-03-12T09:20:34.391Z,355
2017-03-12T09:21:15.270Z,370
2017-03-12T09:21:56.146Z,430
2017-03-12T09:22:37.016Z,410
2017-03-12T09:23:17.889Z,410
2017-03-12T09:23:58.766Z,435
2017-03-12T09:24:39.641Z,535
2017-03-12T09:25:20.521Z,585
2017-03-12T09:26:01.398Z,605
2017-03-12T09:26:42.270Z,560
2017-03-12T09:27:23.151Z,640
2017-03-12T09:28:04.032Z,530
2017-03-12T09:28:44.912Z,530
2017-03-12T09:29:25.797Z,605
2017-03-12T09:30:06.671Z,465
2017-03-12T09:30:47.547Z,445
2017-03-12T09:31:28.424Z,465
2017-03-12T09:32:09.302Z,520
2017-03-12T09:32:50.173Z,515
2017-03-12T09:33:31.049Z,380
2017-03-12T09:34:11.943Z,335
2017-03-12T09:34:52.797Z,315
2017-03-12T09:35:33.668Z,320
2017-03-12T09:36:14.547Z,305
2017-03-12T09:36:55.423Z,290
2017-03-12T09:37:36.295Z,305
2017-03-12T09:38:17.166Z,370
2017-03-12T09:38:58.047Z,400
2017-03-12T09:39:38.918Z,410
2017-03-12T09:40:19.799Z,415
2017-03-12T09:41:00.676Z,385
2017-03-12T09:41:41.546Z,370
2017-03-12T09:42:22.426Z,405
2017-03-12T09:43:03.300Z,420
2017-03-12T09:43:44.174Z,465
2017-03-12T09:44:25.054Z,515
2017-03-12T09:45:05.920Z,585
2017-03-12T09:45:46.789Z,580
2017-03-12T09:46:27.650Z,445
2017-03-12T09:47:08.509Z,485
2017-03-12T09:47:49.372Z,590
2017-03-12T09:48:30.249Z,460
2017-03-12T09:49:11.135Z,430
2017-03-12T09:49:52.008Z,525
2017-03-12T09:50:32.878Z,650
2017-03-12T09:51:13.739Z,590